sensor_id;sensor_type;location;lat;lon;timestamp;temperature;humidity
52495;DHT22;38405;53.212;5.660;2023-11-21T00:02:20;10.10;99.90
52495;DHT22;38405;53.212;5.660;2023-11-21T00:04:47;10.20;99.90
52495;DHT22;38405;53.212;5.660;2023-11-21T00:07:13;10.10;99.90
52495;DHT22;38405;53.212;5.660;2023-11-21T00:09:39;10.20;99.90
52495;DHT22;38405;53.212;5.660;2023-11-21T00:12:04;10.10;99.90
52495;DHT22;38405;53.212;5.660;2023-11-21T00:14:30;10.10;99.90
52495;DHT22;38405;53.212;5.660;2023-11-21T00:16:55;10.10;99.90
52495;DHT22;38405;53.212;5.660;2023-11-21T00:19:21;10.10;99.90
52495;DHT22;38405;53.212;5.660;2023-11-21T00:21:47;10.10;99.90
52495;DHT22;38405;53.212;5.660;2023-11-21T00:24:12;10.10;99.90
52495;DHT22;38405;53.212;5.660;2023-11-21T00:26:42;10.10;99.90
52495;DHT22;38405;53.212;5.660;2023-11-21T00:29:07;10.10;99.90
52495;DHT22;38405;53.212;5.660;2023-11-21T00:31:34;10.10;99.90
52495;DHT22;38405;53.212;5.660;2023-11-21T00:34:02;10.10;99.90
52495;DHT22;38405;53.212;5.660;2023-11-21T00:36:31;10.10;99.90
52495;DHT22;38405;53.212;5.660;2023-11-21T00:38:57;10.20;99.90
52495;DHT22;38405;53.212;5.660;2023-11-21T00:41:23;10.20;99.90
52495;DHT22;38405;53.212;5.660;2023-11-21T00:43:49;10.20;99.90
52495;DHT22;38405;53.212;5.660;2023-11-21T00:46:14;10.20;99.90
52495;DHT22;38405;53.212;5.660;2023-11-21T00:48:40;10.20;99.90
52495;DHT22;38405;53.212;5.660;2023-11-21T00:51:06;10.30;99.90
52495;DHT22;38405;53.212;5.660;2023-11-21T00:53:32;10.30;99.90
52495;DHT22;38405;53.212;5.660;2023-11-21T00:55:57;10.40;99.90
52495;DHT22;38405;53.212;5.660;2023-11-21T00:58:26;10.30;99.90
52495;DHT22;38405;53.212;5.660;2023-11-21T01:00:52;10.30;99.90
52495;DHT22;38405;53.212;5.660;2023-11-21T01:03:18;10.30;99.90
52495;DHT22;38405;53.212;5.660;2023-11-21T01:05:45;10.30;99.90
52495;DHT22;38405;53.212;5.660;2023-11-21T01:08:11;10.40;99.90
52495;DHT22;38405;53.212;5.660;2023-11-21T01:10:36;10.40;99.90
52495;DHT22;38405;53.212;5.660;2023-11-21T01:13:02;10.40;99.90
52495;DHT22;38405;53.212;5.660;2023-11-21T01:15:31;10.30;99.90
52495;DHT22;38405;53.212;5.660;2023-11-21T01:17:57;10.40;99.90
52495;DHT22;38405;53.212;5.660;2023-11-21T01:20:24;10.40;99.90
52495;DHT22;38405;53.212;5.660;2023-11-21T01:22:49;10.40;99.90
52495;DHT22;38405;53.212;5.660;2023-11-21T01:25:15;10.40;99.90
52495;DHT22;38405;53.212;5.660;2023-11-21T01:27:42;10.40;99.90
52495;DHT22;38405;53.212;5.660;2023-11-21T01:30:09;10.40;99.90
52495;DHT22;38405;53.212;5.660;2023-11-21T01:32:36;10.50;99.90
52495;DHT22;38405;53.212;5.660;2023-11-21T01:35:02;10.50;99.90
52495;DHT22;38405;53.212;5.660;2023-11-21T01:37:28;10.50;99.90
52495;DHT22;38405;53.212;5.660;2023-11-21T01:39:56;10.50;99.90
52495;DHT22;38405;53.212;5.660;2023-11-21T01:42:22;10.60;99.90
52495;DHT22;38405;53.212;5.660;2023-11-21T01:44:48;10.70;99.90
52495;DHT22;38405;53.212;5.660;2023-11-21T01:47:14;10.60;99.90
52495;DHT22;38405;53.212;5.660;2023-11-21T01:49:44;10.60;99.90
52495;DHT22;38405;53.212;5.660;2023-11-21T01:52:11;10.70;99.90
52495;DHT22;38405;53.212;5.660;2023-11-21T01:54:37;10.70;99.90
52495;DHT22;38405;53.212;5.660;2023-11-21T01:57:04;10.70;99.90
52495;DHT22;38405;53.212;5.660;2023-11-21T01:59:38;10.70;99.90
52495;DHT22;38405;53.212;5.660;2023-11-21T02:02:05;10.70;99.90
52495;DHT22;38405;53.212;5.660;2023-11-21T02:04:34;10.70;99.90
52495;DHT22;38405;53.212;5.660;2023-11-21T02:07:00;11.00;99.90
52495;DHT22;38405;53.212;5.660;2023-11-21T02:09:27;10.70;99.90
52495;DHT22;38405;53.212;5.660;2023-11-21T02:11:56;10.60;99.90
52495;DHT22;38405;53.212;5.660;2023-11-21T02:14:21;10.70;99.90
52495;DHT22;38405;53.212;5.660;2023-11-21T02:16:50;10.70;99.90
52495;DHT22;38405;53.212;5.660;2023-11-21T02:19:21;10.60;99.90
52495;DHT22;38405;53.212;5.660;2023-11-21T02:21:52;10.60;99.90
52495;DHT22;38405;53.212;5.660;2023-11-21T02:24:22;10.60;99.90
52495;DHT22;38405;53.212;5.660;2023-11-21T02:26:51;10.70;99.90
52495;DHT22;38405;53.212;5.660;2023-11-21T02:29:20;10.60;99.90
52495;DHT22;38405;53.212;5.660;2023-11-21T02:31:49;10.60;99.90
52495;DHT22;38405;53.212;5.660;2023-11-21T02:34:15;10.60;99.90
52495;DHT22;38405;53.212;5.660;2023-11-21T02:36:42;10.60;99.90
52495;DHT22;38405;53.212;5.660;2023-11-21T02:39:09;10.70;99.90
52495;DHT22;38405;53.212;5.660;2023-11-21T02:41:34;10.60;99.90
52495;DHT22;38405;53.212;5.660;2023-11-21T02:44:00;10.60;99.90
52495;DHT22;38405;53.212;5.660;2023-11-21T02:46:26;10.50;99.90
52495;DHT22;38405;53.212;5.660;2023-11-21T02:48:52;10.60;99.90
52495;DHT22;38405;53.212;5.660;2023-11-21T02:51:20;10.50;99.90
52495;DHT22;38405;53.212;5.660;2023-11-21T02:53:45;10.50;99.90
52495;DHT22;38405;53.212;5.660;2023-11-21T02:56:12;10.60;99.90
52495;DHT22;38405;53.212;5.660;2023-11-21T02:58:41;10.60;99.90
52495;DHT22;38405;53.212;5.660;2023-11-21T03:01:07;10.50;99.90
52495;DHT22;38405;53.212;5.660;2023-11-21T03:03:32;10.50;99.90
52495;DHT22;38405;53.212;5.660;2023-11-21T03:05:58;10.40;99.90
52495;DHT22;38405;53.212;5.660;2023-11-21T03:08:24;10.50;99.90
52495;DHT22;38405;53.212;5.660;2023-11-21T03:10:50;10.50;99.90
52495;DHT22;38405;53.212;5.660;2023-11-21T03:13:15;10.70;99.90
52495;DHT22;38405;53.212;5.660;2023-11-21T03:15:41;10.90;99.90
52495;DHT22;38405;53.212;5.660;2023-11-21T03:18:08;10.50;99.90
52495;DHT22;38405;53.212;5.660;2023-11-21T03:20:34;10.50;99.90
52495;DHT22;38405;53.212;5.660;2023-11-21T03:23:00;10.80;99.90
52495;DHT22;38405;53.212;5.660;2023-11-21T03:25:26;10.50;99.90
52495;DHT22;38405;53.212;5.660;2023-11-21T03:27:52;10.60;99.90
52495;DHT22;38405;53.212;5.660;2023-11-21T03:30:18;10.60;99.90
52495;DHT22;38405;53.212;5.660;2023-11-21T03:32:44;10.70;99.90
52495;DHT22;38405;53.212;5.660;2023-11-21T03:35:10;10.60;99.90
52495;DHT22;38405;53.212;5.660;2023-11-21T03:37:36;10.70;99.90
52495;DHT22;38405;53.212;5.660;2023-11-21T03:40:04;10.70;99.90
52495;DHT22;38405;53.212;5.660;2023-11-21T03:42:30;10.70;99.90
52495;DHT22;38405;53.212;5.660;2023-11-21T03:44:55;10.60;99.90
52495;DHT22;38405;53.212;5.660;2023-11-21T03:47:21;10.70;99.90
52495;DHT22;38405;53.212;5.660;2023-11-21T03:49:47;10.70;99.90
52495;DHT22;38405;53.212;5.660;2023-11-21T03:52:12;10.90;99.90
52495;DHT22;38405;53.212;5.660;2023-11-21T03:54:38;10.60;99.90
52495;DHT22;38405;53.212;5.660;2023-11-21T03:57:04;10.70;99.90
52495;DHT22;38405;53.212;5.660;2023-11-21T03:59:29;10.60;99.90
52495;DHT22;38405;53.212;5.660;2023-11-21T04:01:56;10.50;99.90
52495;DHT22;38405;53.212;5.660;2023-11-21T04:04:22;10.50;99.90
52495;DHT22;38405;53.212;5.660;2023-11-21T04:06:48;10.40;99.90
52495;DHT22;38405;53.212;5.660;2023-11-21T04:09:13;10.50;99.90
52495;DHT22;38405;53.212;5.660;2023-11-21T04:11:39;10.40;99.90
52495;DHT22;38405;53.212;5.660;2023-11-21T04:14:05;10.60;99.90
52495;DHT22;38405;53.212;5.660;2023-11-21T04:16:30;10.30;99.90
52495;DHT22;38405;53.212;5.660;2023-11-21T04:18:56;10.30;99.90
52495;DHT22;38405;53.212;5.660;2023-11-21T04:21:22;10.40;99.90
52495;DHT22;38405;53.212;5.660;2023-11-21T04:23:49;10.20;99.90
52495;DHT22;38405;53.212;5.660;2023-11-21T04:26:15;10.10;99.90
52495;DHT22;38405;53.212;5.660;2023-11-21T04:28:41;10.10;99.90
52495;DHT22;38405;53.212;5.660;2023-11-21T04:31:07;10.50;99.90
52495;DHT22;38405;53.212;5.660;2023-11-21T04:33:33;10.20;99.90
52495;DHT22;38405;53.212;5.660;2023-11-21T04:35:58;10.10;99.90
52495;DHT22;38405;53.212;5.660;2023-11-21T04:38:24;10.10;99.90
52495;DHT22;38405;53.212;5.660;2023-11-21T04:40:49;10.30;99.90
52495;DHT22;38405;53.212;5.660;2023-11-21T04:43:15;10.10;99.90
52495;DHT22;38405;53.212;5.660;2023-11-21T04:45:41;10.10;99.90
52495;DHT22;38405;53.212;5.660;2023-11-21T04:48:07;10.20;99.90
52495;DHT22;38405;53.212;5.660;2023-11-21T04:50:34;10.10;99.90
52495;DHT22;38405;53.212;5.660;2023-11-21T04:53:00;10.20;99.90
52495;DHT22;38405;53.212;5.660;2023-11-21T04:55:25;10.40;99.90
52495;DHT22;38405;53.212;5.660;2023-11-21T04:57:54;10.20;99.90
52495;DHT22;38405;53.212;5.660;2023-11-21T05:00:19;10.10;99.90
52495;DHT22;38405;53.212;5.660;2023-11-21T05:02:46;10.20;99.90
52495;DHT22;38405;53.212;5.660;2023-11-21T05:05:12;10.20;99.90
52495;DHT22;38405;53.212;5.660;2023-11-21T05:07:40;10.70;99.90
52495;DHT22;38405;53.212;5.660;2023-11-21T05:10:07;10.10;99.90
52495;DHT22;38405;53.212;5.660;2023-11-21T05:12:34;10.00;99.90
52495;DHT22;38405;53.212;5.660;2023-11-21T05:15:04;10.00;99.90
52495;DHT22;38405;53.212;5.660;2023-11-21T05:17:33;9.90;99.90
52495;DHT22;38405;53.212;5.660;2023-11-21T05:20:00;9.90;99.90
52495;DHT22;38405;53.212;5.660;2023-11-21T05:22:27;9.80;99.90
52495;DHT22;38405;53.212;5.660;2023-11-21T05:24:53;10.10;99.90
52495;DHT22;38405;53.212;5.660;2023-11-21T05:27:19;9.80;99.90
52495;DHT22;38405;53.212;5.660;2023-11-21T05:29:44;9.80;99.90
52495;DHT22;38405;53.212;5.660;2023-11-21T05:32:10;9.70;99.90
52495;DHT22;38405;53.212;5.660;2023-11-21T05:34:35;9.70;99.90
52495;DHT22;38405;53.212;5.660;2023-11-21T05:37:01;9.60;99.90
52495;DHT22;38405;53.212;5.660;2023-11-21T05:39:27;9.60;99.90
52495;DHT22;38405;53.212;5.660;2023-11-21T05:41:53;9.60;99.90
52495;DHT22;38405;53.212;5.660;2023-11-21T05:44:19;9.60;99.90
52495;DHT22;38405;53.212;5.660;2023-11-21T05:46:44;9.50;99.90
52495;DHT22;38405;53.212;5.660;2023-11-21T05:49:10;9.50;99.90
52495;DHT22;38405;53.212;5.660;2023-11-21T05:51:37;9.40;99.90
52495;DHT22;38405;53.212;5.660;2023-11-21T05:54:04;9.50;99.90
52495;DHT22;38405;53.212;5.660;2023-11-21T05:56:29;9.50;99.90
52495;DHT22;38405;53.212;5.660;2023-11-21T05:58:55;9.40;99.90
52495;DHT22;38405;53.212;5.660;2023-11-21T06:01:20;9.40;99.90
52495;DHT22;38405;53.212;5.660;2023-11-21T06:03:46;9.40;99.90
52495;DHT22;38405;53.212;5.660;2023-11-21T06:06:12;9.40;99.90
52495;DHT22;38405;53.212;5.660;2023-11-21T06:08:37;9.40;99.90
52495;DHT22;38405;53.212;5.660;2023-11-21T06:11:03;9.40;99.90
52495;DHT22;38405;53.212;5.660;2023-11-21T06:13:29;9.30;99.90
52495;DHT22;38405;53.212;5.660;2023-11-21T06:15:54;9.60;99.90
52495;DHT22;38405;53.212;5.660;2023-11-21T06:18:20;9.40;99.90
52495;DHT22;38405;53.212;5.660;2023-11-21T06:20:46;9.50;99.90
52495;DHT22;38405;53.212;5.660;2023-11-21T06:23:12;9.30;99.90
52495;DHT22;38405;53.212;5.660;2023-11-21T06:25:39;9.40;99.90
52495;DHT22;38405;53.212;5.660;2023-11-21T06:28:05;9.30;99.90
52495;DHT22;38405;53.212;5.660;2023-11-21T06:30:31;9.40;99.90
52495;DHT22;38405;53.212;5.660;2023-11-21T06:32:57;9.30;99.90
52495;DHT22;38405;53.212;5.660;2023-11-21T06:35:23;9.30;99.90
52495;DHT22;38405;53.212;5.660;2023-11-21T06:37:48;9.30;99.90
52495;DHT22;38405;53.212;5.660;2023-11-21T06:40:14;9.30;99.90
52495;DHT22;38405;53.212;5.660;2023-11-21T06:42:40;9.30;99.90
52495;DHT22;38405;53.212;5.660;2023-11-21T06:45:07;9.30;99.90
52495;DHT22;38405;53.212;5.660;2023-11-21T06:47:33;9.30;99.90
52495;DHT22;38405;53.212;5.660;2023-11-21T06:49:59;9.50;99.90
52495;DHT22;38405;53.212;5.660;2023-11-21T06:52:26;9.60;99.90
52495;DHT22;38405;53.212;5.660;2023-11-21T06:54:52;9.20;99.90
52495;DHT22;38405;53.212;5.660;2023-11-21T06:57:17;9.30;99.90
52495;DHT22;38405;53.212;5.660;2023-11-21T06:59:43;9.30;99.90
52495;DHT22;38405;53.212;5.660;2023-11-21T07:02:09;9.30;99.90
52495;DHT22;38405;53.212;5.660;2023-11-21T07:04:35;9.30;99.90
52495;DHT22;38405;53.212;5.660;2023-11-21T07:07:02;9.30;99.90
52495;DHT22;38405;53.212;5.660;2023-11-21T07:09:28;9.30;99.90
52495;DHT22;38405;53.212;5.660;2023-11-21T07:11:54;9.20;99.90
52495;DHT22;38405;53.212;5.660;2023-11-21T07:14:20;9.20;99.90
52495;DHT22;38405;53.212;5.660;2023-11-21T07:16:47;9.20;99.90
52495;DHT22;38405;53.212;5.660;2023-11-21T07:19:13;9.10;99.90
52495;DHT22;38405;53.212;5.660;2023-11-21T07:21:39;9.30;99.90
52495;DHT22;38405;53.212;5.660;2023-11-21T07:24:06;9.20;99.90
52495;DHT22;38405;53.212;5.660;2023-11-21T07:26:33;9.20;99.90
52495;DHT22;38405;53.212;5.660;2023-11-21T07:29:00;9.20;99.90
52495;DHT22;38405;53.212;5.660;2023-11-21T07:31:26;9.20;99.90
52495;DHT22;38405;53.212;5.660;2023-11-21T07:33:52;9.30;99.90
52495;DHT22;38405;53.212;5.660;2023-11-21T07:36:19;9.20;99.90
52495;DHT22;38405;53.212;5.660;2023-11-21T07:38:46;9.20;99.90
52495;DHT22;38405;53.212;5.660;2023-11-21T07:41:12;9.20;99.90
52495;DHT22;38405;53.212;5.660;2023-11-21T07:43:41;9.20;99.90
52495;DHT22;38405;53.212;5.660;2023-11-21T07:46:07;9.20;99.90
52495;DHT22;38405;53.212;5.660;2023-11-21T07:48:34;9.20;99.90
52495;DHT22;38405;53.212;5.660;2023-11-21T07:51:00;9.30;99.90
52495;DHT22;38405;53.212;5.660;2023-11-21T07:53:26;9.20;99.90
52495;DHT22;38405;53.212;5.660;2023-11-21T07:55:54;9.30;99.90
52495;DHT22;38405;53.212;5.660;2023-11-21T07:58:20;9.20;99.90
52495;DHT22;38405;53.212;5.660;2023-11-21T08:00:46;9.20;99.90
52495;DHT22;38405;53.212;5.660;2023-11-21T08:03:13;9.20;99.90
52495;DHT22;38405;53.212;5.660;2023-11-21T08:05:39;9.10;99.90
52495;DHT22;38405;53.212;5.660;2023-11-21T08:08:05;9.20;99.90
52495;DHT22;38405;53.212;5.660;2023-11-21T08:10:31;9.20;99.90
52495;DHT22;38405;53.212;5.660;2023-11-21T08:12:57;9.10;99.90
52495;DHT22;38405;53.212;5.660;2023-11-21T08:15:22;9.10;99.90
52495;DHT22;38405;53.212;5.660;2023-11-21T08:17:48;9.10;99.90
52495;DHT22;38405;53.212;5.660;2023-11-21T08:20:14;9.10;99.90
52495;DHT22;38405;53.212;5.660;2023-11-21T08:22:44;9.20;99.90
52495;DHT22;38405;53.212;5.660;2023-11-21T08:25:11;9.20;99.90
52495;DHT22;38405;53.212;5.660;2023-11-21T08:27:36;9.20;99.90
52495;DHT22;38405;53.212;5.660;2023-11-21T08:30:05;9.20;99.90
52495;DHT22;38405;53.212;5.660;2023-11-21T08:32:32;9.30;99.90
52495;DHT22;38405;53.212;5.660;2023-11-21T08:34:59;9.40;99.90
52495;DHT22;38405;53.212;5.660;2023-11-21T08:37:25;9.30;99.90
52495;DHT22;38405;53.212;5.660;2023-11-21T08:39:53;9.40;99.90
52495;DHT22;38405;53.212;5.660;2023-11-21T08:42:19;9.50;99.90
52495;DHT22;38405;53.212;5.660;2023-11-21T08:44:45;9.40;99.90
52495;DHT22;38405;53.212;5.660;2023-11-21T08:47:11;9.40;99.90
52495;DHT22;38405;53.212;5.660;2023-11-21T08:49:37;9.40;99.90
52495;DHT22;38405;53.212;5.660;2023-11-21T08:52:03;9.40;99.90
52495;DHT22;38405;53.212;5.660;2023-11-21T08:54:30;9.50;99.90
52495;DHT22;38405;53.212;5.660;2023-11-21T08:56:56;9.40;99.90
52495;DHT22;38405;53.212;5.660;2023-11-21T08:59:24;9.40;99.90
52495;DHT22;38405;53.212;5.660;2023-11-21T09:01:50;9.40;99.90
52495;DHT22;38405;53.212;5.660;2023-11-21T09:04:16;9.40;99.90
52495;DHT22;38405;53.212;5.660;2023-11-21T09:06:41;9.70;99.90
52495;DHT22;38405;53.212;5.660;2023-11-21T09:09:07;9.50;99.90
52495;DHT22;38405;53.212;5.660;2023-11-21T09:11:34;9.60;99.90
52495;DHT22;38405;53.212;5.660;2023-11-21T09:14:00;9.60;99.90
52495;DHT22;38405;53.212;5.660;2023-11-21T09:16:26;9.90;99.90
52495;DHT22;38405;53.212;5.660;2023-11-21T09:18:52;9.60;99.90
52495;DHT22;38405;53.212;5.660;2023-11-21T09:21:17;9.60;99.90
52495;DHT22;38405;53.212;5.660;2023-11-21T09:23:46;9.60;99.90
52495;DHT22;38405;53.212;5.660;2023-11-21T09:26:12;9.50;99.90
52495;DHT22;38405;53.212;5.660;2023-11-21T09:28:38;9.50;99.90
52495;DHT22;38405;53.212;5.660;2023-11-21T09:31:05;9.60;99.90
52495;DHT22;38405;53.212;5.660;2023-11-21T09:33:34;9.60;99.90
52495;DHT22;38405;53.212;5.660;2023-11-21T09:35:59;9.60;99.90
52495;DHT22;38405;53.212;5.660;2023-11-21T09:38:25;9.70;99.90
52495;DHT22;38405;53.212;5.660;2023-11-21T09:40:51;9.70;99.90
52495;DHT22;38405;53.212;5.660;2023-11-21T09:43:19;9.80;99.90
52495;DHT22;38405;53.212;5.660;2023-11-21T09:45:46;9.90;99.90
52495;DHT22;38405;53.212;5.660;2023-11-21T09:48:13;10.00;99.90
52495;DHT22;38405;53.212;5.660;2023-11-21T09:50:42;10.20;99.90
52495;DHT22;38405;53.212;5.660;2023-11-21T09:55:42;10.10;99.90
52495;DHT22;38405;53.212;5.660;2023-11-21T09:58:08;10.10;99.90
52495;DHT22;38405;53.212;5.660;2023-11-21T10:00:43;10.10;99.90
52495;DHT22;38405;53.212;5.660;2023-11-21T10:03:10;10.10;99.90
52495;DHT22;38405;53.212;5.660;2023-11-21T10:05:36;10.00;99.90
52495;DHT22;38405;53.212;5.660;2023-11-21T10:08:04;10.00;99.90
52495;DHT22;38405;53.212;5.660;2023-11-21T10:10:32;9.90;99.90
52495;DHT22;38405;53.212;5.660;2023-11-21T10:13:02;9.80;99.90
52495;DHT22;38405;53.212;5.660;2023-11-21T10:15:29;9.80;99.90
52495;DHT22;38405;53.212;5.660;2023-11-21T10:17:56;9.70;99.90
52495;DHT22;38405;53.212;5.660;2023-11-21T10:20:23;9.70;99.90
52495;DHT22;38405;53.212;5.660;2023-11-21T10:22:49;9.60;99.90
52495;DHT22;38405;53.212;5.660;2023-11-21T10:25:15;9.60;99.90
52495;DHT22;38405;53.212;5.660;2023-11-21T10:27:41;9.50;99.90
52495;DHT22;38405;53.212;5.660;2023-11-21T10:30:08;9.60;99.90
52495;DHT22;38405;53.212;5.660;2023-11-21T10:32:38;9.60;99.90
52495;DHT22;38405;53.212;5.660;2023-11-21T10:35:05;9.60;99.90
52495;DHT22;38405;53.212;5.660;2023-11-21T10:37:37;9.50;99.90
52495;DHT22;38405;53.212;5.660;2023-11-21T10:40:06;9.50;99.90
52495;DHT22;38405;53.212;5.660;2023-11-21T10:42:33;9.40;99.90
52495;DHT22;38405;53.212;5.660;2023-11-21T10:44:59;9.30;99.90
52495;DHT22;38405;53.212;5.660;2023-11-21T10:47:26;9.30;99.90
52495;DHT22;38405;53.212;5.660;2023-11-21T10:49:52;9.20;99.90
52495;DHT22;38405;53.212;5.660;2023-11-21T10:52:20;9.20;99.90
52495;DHT22;38405;53.212;5.660;2023-11-21T10:54:46;9.10;99.90
52495;DHT22;38405;53.212;5.660;2023-11-21T10:57:17;9.20;99.90
52495;DHT22;38405;53.212;5.660;2023-11-21T10:59:46;9.20;99.90
52495;DHT22;38405;53.212;5.660;2023-11-21T11:02:30;9.40;99.90
52495;DHT22;38405;53.212;5.660;2023-11-21T11:04:59;10.10;99.90
52495;DHT22;38405;53.212;5.660;2023-11-21T11:07:27;9.80;99.90
52495;DHT22;38405;53.212;5.660;2023-11-21T11:09:58;10.30;99.90
52495;DHT22;38405;53.212;5.660;2023-11-21T11:12:24;10.00;99.90
52495;DHT22;38405;53.212;5.660;2023-11-21T11:14:51;10.10;99.90
52495;DHT22;38405;53.212;5.660;2023-11-21T11:17:19;10.20;99.90
52495;DHT22;38405;53.212;5.660;2023-11-21T11:19:48;10.20;99.90
52495;DHT22;38405;53.212;5.660;2023-11-21T11:22:37;10.10;99.90
52495;DHT22;38405;53.212;5.660;2023-11-21T11:28:17;10.10;99.90
52495;DHT22;38405;53.212;5.660;2023-11-21T11:31:00;9.80;99.90
52495;DHT22;38405;53.212;5.660;2023-11-21T11:36:28;9.60;99.90
52495;DHT22;38405;53.212;5.660;2023-11-21T11:38:54;9.50;99.90
52495;DHT22;38405;53.212;5.660;2023-11-21T11:41:34;9.50;99.90
52495;DHT22;38405;53.212;5.660;2023-11-21T11:47:47;9.50;99.90
52495;DHT22;38405;53.212;5.660;2023-11-21T11:50:17;9.20;99.90
52495;DHT22;38405;53.212;5.660;2023-11-21T11:52:53;9.10;99.90
52495;DHT22;38405;53.212;5.660;2023-11-21T11:55:23;9.20;99.90
52495;DHT22;38405;53.212;5.660;2023-11-21T11:57:53;9.20;99.90
52495;DHT22;38405;53.212;5.660;2023-11-21T12:03:00;9.40;99.90
52495;DHT22;38405;53.212;5.660;2023-11-21T12:05:35;9.50;99.90
52495;DHT22;38405;53.212;5.660;2023-11-21T12:11:08;10.40;99.90
52495;DHT22;38405;53.212;5.660;2023-11-21T12:16:18;10.20;99.90
52495;DHT22;38405;53.212;5.660;2023-11-21T12:18:49;10.20;99.90
52495;DHT22;38405;53.212;5.660;2023-11-21T12:21:22;10.20;99.90
52495;DHT22;38405;53.212;5.660;2023-11-21T12:23:47;11.10;99.90
52495;DHT22;38405;53.212;5.660;2023-11-21T12:26:18;10.50;99.90
52495;DHT22;38405;53.212;5.660;2023-11-21T12:29:03;10.60;99.90
52495;DHT22;38405;53.212;5.660;2023-11-21T12:31:30;10.50;99.90
52495;DHT22;38405;53.212;5.660;2023-11-21T12:33:56;10.50;99.90
52495;DHT22;38405;53.212;5.660;2023-11-21T12:38:58;10.50;99.90
52495;DHT22;38405;53.212;5.660;2023-11-21T12:41:24;10.70;99.90
52495;DHT22;38405;53.212;5.660;2023-11-21T12:43:49;10.30;99.90
52495;DHT22;38405;53.212;5.660;2023-11-21T12:46:24;10.20;99.90
52495;DHT22;38405;53.212;5.660;2023-11-21T12:48:54;10.00;99.90
52495;DHT22;38405;53.212;5.660;2023-11-21T12:51:34;9.90;99.90
52495;DHT22;38405;53.212;5.660;2023-11-21T12:53:59;9.70;99.90
52495;DHT22;38405;53.212;5.660;2023-11-21T12:56:26;9.60;99.90
52495;DHT22;38405;53.212;5.660;2023-11-21T12:58:53;9.60;99.90
52495;DHT22;38405;53.212;5.660;2023-11-21T13:01:25;9.70;99.90
52495;DHT22;38405;53.212;5.660;2023-11-21T13:03:53;10.00;99.90
52495;DHT22;38405;53.212;5.660;2023-11-21T13:06:19;9.90;99.90
52495;DHT22;38405;53.212;5.660;2023-11-21T13:08:47;10.20;99.90
52495;DHT22;38405;53.212;5.660;2023-11-21T13:11:13;10.20;99.90
52495;DHT22;38405;53.212;5.660;2023-11-21T13:13:41;10.20;99.90
52495;DHT22;38405;53.212;5.660;2023-11-21T13:16:08;10.20;99.90
52495;DHT22;38405;53.212;5.660;2023-11-21T13:18:35;10.20;99.90
52495;DHT22;38405;53.212;5.660;2023-11-21T13:21:05;10.10;99.90
52495;DHT22;38405;53.212;5.660;2023-11-21T13:23:37;10.20;99.90
52495;DHT22;38405;53.212;5.660;2023-11-21T13:26:03;10.10;99.90
52495;DHT22;38405;53.212;5.660;2023-11-21T13:28:30;10.00;99.90
52495;DHT22;38405;53.212;5.660;2023-11-21T13:30:59;9.90;99.90
52495;DHT22;38405;53.212;5.660;2023-11-21T13:33:43;9.90;99.90
52495;DHT22;38405;53.212;5.660;2023-11-21T13:36:15;9.80;99.90
52495;DHT22;38405;53.212;5.660;2023-11-21T13:38:51;9.70;99.90
52495;DHT22;38405;53.212;5.660;2023-11-21T13:41:18;9.70;99.90
52495;DHT22;38405;53.212;5.660;2023-11-21T13:43:44;9.60;99.90
52495;DHT22;38405;53.212;5.660;2023-11-21T13:46:18;9.60;99.90
52495;DHT22;38405;53.212;5.660;2023-11-21T13:48:48;9.50;99.90
52495;DHT22;38405;53.212;5.660;2023-11-21T13:51:19;9.50;99.90
52495;DHT22;38405;53.212;5.660;2023-11-21T13:53:48;9.30;99.90
52495;DHT22;38405;53.212;5.660;2023-11-21T13:56:18;9.20;99.90
52495;DHT22;38405;53.212;5.660;2023-11-21T13:58:53;9.00;99.90
52495;DHT22;38405;53.212;5.660;2023-11-21T14:01:22;9.30;99.90
52495;DHT22;38405;53.212;5.660;2023-11-21T14:03:58;8.80;99.90
52495;DHT22;38405;53.212;5.660;2023-11-21T14:06:43;8.70;99.90
52495;DHT22;38405;53.212;5.660;2023-11-21T14:09:23;8.70;99.90
52495;DHT22;38405;53.212;5.660;2023-11-21T14:11:58;8.70;99.90
52495;DHT22;38405;53.212;5.660;2023-11-21T14:14:26;8.70;99.90
52495;DHT22;38405;53.212;5.660;2023-11-21T14:16:53;8.60;99.90
52495;DHT22;38405;53.212;5.660;2023-11-21T14:19:21;8.60;99.90
52495;DHT22;38405;53.212;5.660;2023-11-21T14:21:47;8.60;99.90
52495;DHT22;38405;53.212;5.660;2023-11-21T14:24:16;8.50;99.90
52495;DHT22;38405;53.212;5.660;2023-11-21T14:26:45;8.50;99.90
52495;DHT22;38405;53.212;5.660;2023-11-21T14:29:15;8.60;99.90
52495;DHT22;38405;53.212;5.660;2023-11-21T14:31:45;8.50;99.90
52495;DHT22;38405;53.212;5.660;2023-11-21T14:34:11;9.00;99.90
52495;DHT22;38405;53.212;5.660;2023-11-21T14:36:39;8.40;99.90
52495;DHT22;38405;53.212;5.660;2023-11-21T14:39:08;8.40;99.90
52495;DHT22;38405;53.212;5.660;2023-11-21T14:41:51;8.40;99.90
52495;DHT22;38405;53.212;5.660;2023-11-21T14:44:17;9.00;99.90
52495;DHT22;38405;53.212;5.660;2023-11-21T14:46:43;8.20;99.90
52495;DHT22;38405;53.212;5.660;2023-11-21T14:49:14;8.20;99.90
52495;DHT22;38405;53.212;5.660;2023-11-21T14:52:19;8.50;99.90
52495;DHT22;38405;53.212;5.660;2023-11-21T14:55:04;8.00;99.90
52495;DHT22;38405;53.212;5.660;2023-11-21T14:57:47;7.80;99.90
52495;DHT22;38405;53.212;5.660;2023-11-21T15:00:19;7.80;99.90
52495;DHT22;38405;53.212;5.660;2023-11-21T15:03:07;7.80;99.90
52495;DHT22;38405;53.212;5.660;2023-11-21T15:05:34;7.70;99.90
52495;DHT22;38405;53.212;5.660;2023-11-21T15:08:01;7.70;99.90
52495;DHT22;38405;53.212;5.660;2023-11-21T15:10:45;7.70;99.90
52495;DHT22;38405;53.212;5.660;2023-11-21T15:13:13;7.70;99.90
52495;DHT22;38405;53.212;5.660;2023-11-21T15:15:41;7.60;99.90
52495;DHT22;38405;53.212;5.660;2023-11-21T15:18:07;7.70;99.90
52495;DHT22;38405;53.212;5.660;2023-11-21T15:20:33;7.50;99.90
52495;DHT22;38405;53.212;5.660;2023-11-21T15:22:58;7.40;99.90
52495;DHT22;38405;53.212;5.660;2023-11-21T15:25:25;7.50;99.90
52495;DHT22;38405;53.212;5.660;2023-11-21T15:27:51;7.80;99.90
52495;DHT22;38405;53.212;5.660;2023-11-21T15:30:17;7.20;99.90
52495;DHT22;38405;53.212;5.660;2023-11-21T15:32:51;7.10;99.90
52495;DHT22;38405;53.212;5.660;2023-11-21T15:35:30;7.00;99.90
52495;DHT22;38405;53.212;5.660;2023-11-21T15:37:57;6.50;99.90
52495;DHT22;38405;53.212;5.660;2023-11-21T15:40:27;7.70;99.90
52495;DHT22;38405;53.212;5.660;2023-11-21T15:42:56;6.80;99.90
52495;DHT22;38405;53.212;5.660;2023-11-21T15:45:21;6.80;99.90
52495;DHT22;38405;53.212;5.660;2023-11-21T15:47:57;6.60;99.90
52495;DHT22;38405;53.212;5.660;2023-11-21T15:50:23;7.00;99.90
52495;DHT22;38405;53.212;5.660;2023-11-21T15:52:50;6.60;99.90
52495;DHT22;38405;53.212;5.660;2023-11-21T15:55:16;6.60;99.90
52495;DHT22;38405;53.212;5.660;2023-11-21T15:57:43;6.60;99.90
52495;DHT22;38405;53.212;5.660;2023-11-21T16:00:09;6.50;99.90
52495;DHT22;38405;53.212;5.660;2023-11-21T16:02:37;6.50;99.90
52495;DHT22;38405;53.212;5.660;2023-11-21T16:05:04;6.50;99.90
52495;DHT22;38405;53.212;5.660;2023-11-21T16:07:31;6.50;99.90